Time;durP1;ratioP1;P1;durP2;ratioP2;P2;SDS_P1;SDS_P2;PMS_P1;PMS_P2;Temp;Humidity;BMP_temperature;BMP_pressure;BME280_temperature;BME280_humidity;BME280_pressure;Samples;Min_cycle;Max_cycle;Signal;HPM_P1;HPM_P2
2023/01/02 00:00:22;;;;;;;0.00;0.00;;;;;;;16.31;41.22;98759.31;5059866;28;20262;-54
2023/01/02 00:02:49;;;;;;;0.00;0.00;;;;;;;16.23;41.90;98776.03;5059094;28;20233;-52
2023/01/02 00:05:17;;;;;;;0.00;0.00;;;;;;;15.97;42.35;98768.59;5056549;28;20245;-53
2023/01/02 00:07:43;;;;;;;0.00;0.00;;;;;;;15.82;43.56;98776.47;5060156;28;20215;-54
2023/01/02 00:10:10;;;;;;;0.00;0.00;;;;;;;15.54;45.40;98765.75;5052749;28;20287;-52
2023/01/02 00:12:37;;;;;;;0.00;0.00;;;;;;;15.26;46.20;98769.78;5060330;28;20307;-52
2023/01/02 00:15:04;;;;;;;0.00;0.00;;;;;;;15.01;47.88;98770.00;5058320;28;20236;-52
2023/01/02 00:17:30;;;;;;;0.00;0.00;;;;;;;14.73;49.22;98761.81;5060437;28;20237;-52
2023/01/02 00:19:57;;;;;;;0.00;0.00;;;;;;;14.56;51.25;98745.28;5048876;28;20238;-53
2023/01/02 00:22:25;;;;;;;0.00;0.00;;;;;;;14.45;51.12;98760.44;5043531;28;20236;-52
2023/01/02 00:24:51;;;;;;;0.00;0.00;;;;;;;14.29;52.65;98756.13;5054872;28;20234;-54
2023/01/02 00:27:18;;;;;;;0.00;0.00;;;;;;;14.19;52.36;98739.75;5054384;28;20277;-53
2023/01/02 00:29:45;;;;;;;0.00;0.00;;;;;;;14.18;53.14;98746.00;5050134;28;20282;-53
2023/01/02 00:32:11;;;;;;;0.00;0.00;;;;;;;13.98;53.88;98738.53;5041174;28;20239;-53
2023/01/02 00:34:38;;;;;;;0.00;0.00;;;;;;;14.02;52.63;98736.38;5052430;28;20221;-54
2023/01/02 00:37:04;;;;;;;0.00;0.00;;;;;;;13.93;53.99;98727.72;5033364;28;20226;-51
2023/01/02 00:39:32;;;;;;;0.00;0.00;;;;;;;13.98;50.78;98720.16;5053484;28;20633;-51
2023/01/02 00:41:59;;;;;;;0.00;0.00;;;;;;;14.80;41.12;98714.63;5050285;28;20784;-51
2023/01/02 00:44:25;;;;;;;0.00;0.00;;;;;;;14.86;46.26;98714.72;5051210;28;20563;-51
2023/01/02 00:46:52;;;;;;;0.00;0.00;;;;;;;14.93;44.89;98714.03;5056126;28;20224;-52
2023/01/02 00:49:19;;;;;;;0.00;0.00;;;;;;;15.31;39.14;98719.28;5056113;28;20241;-51
2023/01/02 00:51:45;;;;;;;0.00;0.00;;;;;;;15.77;37.11;98723.56;5041074;28;20234;-51
2023/01/02 00:54:12;;;;;;;0.00;0.00;;;;;;;16.14;35.75;98723.66;5046575;28;20227;-51
2023/01/02 00:56:40;;;;;;;0.00;0.00;;;;;;;16.41;34.98;98713.41;5052866;28;20235;-51
2023/01/02 00:59:06;;;;;;;0.00;0.00;;;;;;;16.47;35.07;98723.22;5045048;28;20226;-51
2023/01/02 01:01:33;;;;;;;0.00;0.00;;;;;;;16.60;34.44;98733.06;5055833;28;20242;-52
2023/01/02 01:04:01;;;;;;;0.00;0.00;;;;;;;16.82;34.29;98729.44;5039385;28;20238;-51
2023/01/02 01:06:27;;;;;;;0.00;0.00;;;;;;;17.03;33.15;98740.16;5060206;28;20235;-52
2023/01/02 01:08:54;;;;;;;0.00;0.00;;;;;;;16.87;34.47;98742.06;5057072;28;20288;-51
2023/01/02 01:11:20;;;;;;;0.00;0.00;;;;;;;16.78;34.45;98741.34;5074251;28;20303;-51
2023/01/02 01:13:48;;;;;;;0.00;0.00;;;;;;;16.70;34.41;98740.69;5055039;28;20224;-52
2023/01/02 01:16:17;;;;;;;0.00;0.00;;;;;;;16.59;36.61;98748.06;5050333;28;20238;-52
2023/01/02 01:18:44;;;;;;;0.00;0.00;;;;;;;16.52;37.59;98740.09;5050615;28;20226;-51
2023/01/02 01:21:14;;;;;;;0.00;0.00;;;;;;;16.48;37.36;98738.81;5055224;28;20222;-51
2023/01/02 01:23:40;;;;;;;0.00;0.00;;;;;;;16.44;37.23;98749.94;5058819;28;20231;-51
2023/01/02 01:26:09;;;;;;;0.00;0.00;;;;;;;16.36;36.23;98738.50;5053261;28;20319;-52
2023/01/02 01:28:36;;;;;;;0.00;0.00;;;;;;;16.29;37.95;98731.53;5044304;28;20272;-51
2023/01/02 01:31:07;;;;;;;0.00;0.00;;;;;;;16.12;37.67;98739.66;5056216;28;20227;-51
2023/01/02 01:33:35;;;;;;;0.00;0.00;;;;;;;16.02;39.09;98728.59;5051032;28;20792;-51
2023/01/02 01:36:02;;;;;;;0.00;0.00;;;;;;;15.90;42.86;98730.88;5056921;28;20222;-53
2023/01/02 01:38:29;;;;;;;0.00;0.00;;;;;;;15.75;38.83;98726.41;5054552;28;20238;-52
2023/01/02 01:40:56;;;;;;;0.00;0.00;;;;;;;15.93;36.48;98720.78;5047145;28;20226;-51
2023/01/02 01:43:36;;;;;;;0.00;0.00;;;;;;;15.98;36.92;98719.41;5056982;28;20232;-51
2023/01/02 01:46:06;;;;;;;0.00;0.00;;;;;;;16.24;34.24;98718.91;5055908;28;20719;-53
2023/01/02 01:48:33;;;;;;;0.00;0.00;;;;;;;16.34;33.83;98727.34;5046088;28;20234;-53
2023/01/02 01:50:59;;;;;;;0.00;0.00;;;;;;;16.35;34.06;98715.00;5052727;28;20256;-51
2023/01/02 01:53:26;;;;;;;0.00;0.00;;;;;;;16.55;34.18;98723.09;5051029;28;20224;-53
2023/01/02 01:55:56;;;;;;;0.00;0.00;;;;;;;16.70;32.80;98720.38;5055497;28;20306;-53
2023/01/02 01:58:25;;;;;;;0.00;0.00;;;;;;;16.86;31.86;98708.78;5056739;28;20250;-51
2023/01/02 02:00:53;;;;;;;0.00;0.00;;;;;;;16.87;33.12;98717.50;5058647;28;20234;-52
2023/01/02 02:03:24;;;;;;;0.00;0.00;;;;;;;16.88;32.32;98712.06;5056924;28;20259;-52
2023/01/02 02:05:51;;;;;;;0.00;0.00;;;;;;;17.01;32.06;98710.53;5060784;28;20246;-52
2023/01/02 02:08:21;;;;;;;0.00;0.00;;;;;;;16.93;32.40;98707.03;5060879;28;20321;-51
2023/01/02 02:10:49;;;;;;;0.00;0.00;;;;;;;17.13;31.53;98701.09;5064035;28;20313;-51
2023/01/02 02:13:15;;;;;;;0.00;0.00;;;;;;;17.02;32.43;98707.72;5059558;28;20788;-51
2023/01/02 02:15:48;;;;;;;0.00;0.00;;;;;;;17.14;31.51;98701.94;5065048;28;20237;-51
2023/01/02 02:18:29;;;;;;;0.00;0.00;;;;;;;17.16;31.71;98705.19;5061604;28;20230;-51
2023/01/02 02:21:00;;;;;;;0.00;0.00;;;;;;;17.13;31.20;98702.94;5053755;28;20293;-53
2023/01/02 02:23:53;;;;;;;0.00;0.00;;;;;;;17.05;31.97;98701.25;5063137;28;20698;-53
2023/01/02 02:26:55;;;;;;;0.00;0.00;;;;;;;17.06;31.17;98694.97;5041946;28;20755;-51
2023/01/02 02:30:08;;;;;;;0.00;0.00;;;;;;;16.99;31.93;98696.72;5053022;28;20222;-53
2023/01/02 02:32:50;;;;;;;0.00;0.00;;;;;;;16.94;31.99;98690.22;5019126;28;20698;-53
2023/01/02 02:35:26;;;;;;;0.00;0.00;;;;;;;16.89;32.25;98699.69;5018156;28;20801;-51
2023/01/02 02:38:00;;;;;;;0.00;0.00;;;;;;;16.94;31.54;98690.22;5048314;28;20234;-51
2023/01/02 02:40:37;;;;;;;0.00;0.00;;;;;;;16.91;32.02;98695.03;5064804;28;20800;-51
2023/01/02 02:43:14;;;;;;;0.00;0.00;;;;;;;16.94;32.31;98690.22;5051450;28;20240;-51
2023/01/02 02:45:50;;;;;;;0.00;0.00;;;;;;;17.04;31.47;98694.34;5066891;28;20253;-51
2023/01/02 02:48:23;;;;;;;0.00;0.00;;;;;;;16.91;32.33;98684.47;5061277;28;20229;-51
2023/01/02 02:50:56;;;;;;;0.00;0.00;;;;;;;16.89;31.94;98687.31;5052377;28;20699;-51
2023/01/02 02:53:24;;;;;;;0.00;0.00;;;;;;;16.91;31.33;98672.13;5061659;28;20328;-50
2023/01/02 02:55:54;;;;;;;0.00;0.00;;;;;;;16.84;32.37;98684.44;5065785;28;20235;-52
2023/01/02 02:58:22;;;;;;;0.00;0.00;;;;;;;16.95;31.06;98680.47;5066113;28;20232;-51
2023/01/02 03:00:50;;;;;;;0.00;0.00;;;;;;;16.95;31.26;98676.03;5061909;28;20231;-50
2023/01/02 03:03:18;;;;;;;0.00;0.00;;;;;;;16.92;31.18;98673.75;5056939;28;20698;-51
2023/01/02 03:05:59;;;;;;;0.00;0.00;;;;;;;16.95;30.76;98669.91;5067997;28;20232;-51
2023/01/02 03:08:32;;;;;;;0.00;0.00;;;;;;;16.99;30.75;98681.75;5051098;28;20281;-52
2023/01/02 03:11:02;;;;;;;0.00;0.00;;;;;;;16.92;31.63;98686.94;5046632;28;20314;-53
2023/01/02 03:13:36;;;;;;;0.00;0.00;;;;;;;16.88;31.43;98679.59;5061071;28;20242;-51
2023/01/02 03:16:11;;;;;;;0.00;0.00;;;;;;;16.90;30.87;98680.22;5064812;28;20302;-55
2023/01/02 03:18:45;;;;;;;0.00;0.00;;;;;;;16.87;30.70;98677.97;5061082;28;20299;-52
2023/01/02 03:21:15;;;;;;;0.00;0.00;;;;;;;16.89;30.77;98673.31;5056113;28;20718;-51
2023/01/02 03:23:44;;;;;;;0.00;0.00;;;;;;;16.84;30.96;98681.81;5067920;28;20232;-53
2023/01/02 03:26:15;;;;;;;0.00;0.00;;;;;;;16.87;30.41;98677.97;5065122;28;20291;-51
2023/01/02 03:28:44;;;;;;;0.00;0.00;;;;;;;16.77;31.17;98686.22;5067684;28;20236;-52
2023/01/02 03:31:17;;;;;;;0.00;0.00;;;;;;;16.73;31.17;98684.94;5057436;28;20226;-50
2023/01/02 03:33:51;;;;;;;0.00;0.00;;;;;;;16.63;31.91;98683.44;5068055;28;20226;-52
2023/01/02 03:36:22;;;;;;;0.00;0.00;;;;;;;16.58;31.40;98688.47;5053528;28;20291;-51
2023/01/02 03:39:00;;;;;;;0.00;0.00;;;;;;;16.57;31.14;98684.19;5063671;28;20226;-52
2023/01/02 03:41:32;;;;;;;0.00;0.00;;;;;;;16.55;31.62;98688.84;5066105;28;20240;-51
2023/01/02 03:44:02;;;;;;;0.00;0.00;;;;;;;16.75;30.51;98682.94;5064991;28;20221;-51
2023/01/02 03:46:33;;;;;;;0.00;0.00;;;;;;;16.58;31.26;98677.94;5067912;28;20227;-52
2023/01/02 03:49:06;;;;;;;0.00;0.00;;;;;;;16.57;30.91;98680.72;5065216;28;20237;-51
2023/01/02 03:51:34;;;;;;;0.00;0.00;;;;;;;16.57;30.78;98673.66;5067564;28;21243;-53
2023/01/02 03:54:03;;;;;;;0.00;0.00;;;;;;;16.43;31.74;98679.81;5064442;28;20265;-51
2023/01/02 03:56:42;;;;;;;0.00;0.00;;;;;;;16.45;30.95;98673.31;5067633;28;20231;-53
2023/01/02 03:59:17;;;;;;;0.00;0.00;;;;;;;16.43;30.81;98672.69;5062907;28;20280;-52
2023/01/02 04:04:34;;;;;;;0.00;0.00;;;;;;;16.46;30.54;98671.53;5543992;22;20468;-58
2023/01/02 04:07:06;;;;;;;0.00;0.00;;;;;;;16.45;30.36;98675.16;5018033;28;20586;-58
2023/01/02 04:09:37;;;;;;;0.00;0.00;;;;;;;16.52;30.02;98668.13;5025375;28;20710;-57
2023/01/02 04:12:09;;;;;;;0.00;0.00;;;;;;;16.55;30.38;98675.66;5022952;28;20252;-57
2023/01/02 04:14:40;;;;;;;0.00;0.00;;;;;;;16.51;29.83;98669.13;5021785;28;20235;-57
2023/01/02 04:17:08;;;;;;;0.00;0.00;;;;;;;16.64;30.07;98673.69;5022274;28;20232;-57
2023/01/02 04:19:41;;;;;;;0.00;0.00;;;;;;;16.48;29.70;98669.50;5025230;28;20230;-59
2023/01/02 04:22:14;;;;;;;0.00;0.00;;;;;;;16.45;29.93;98669.88;5022575;28;20224;-58
2023/01/02 04:24:53;;;;;;;0.00;0.00;;;;;;;16.47;30.04;98666.03;5024195;28;20235;-59
2023/01/02 04:27:24;;;;;;;0.00;0.00;;;;;;;16.58;29.27;98664.75;5023388;28;20558;-58
2023/01/02 04:29:51;;;;;;;0.00;0.00;;;;;;;16.59;28.62;98666.38;5024764;28;20236;-57
2023/01/02 04:32:23;;;;;;;0.00;0.00;;;;;;;16.64;29.16;98655.25;5195959;23;20229;-60
2023/01/02 04:34:53;;;;;;;0.00;0.00;;;;;;;16.77;28.70;98663.28;4985737;28;20226;-60
2023/01/02 04:37:31;;;;;;;0.00;0.00;;;;;;;16.76;28.89;98655.56;4984806;28;20250;-60
2023/01/02 04:40:01;;;;;;;0.00;0.00;;;;;;;16.72;28.80;98654.31;4983267;28;20233;-60
2023/01/02 04:42:28;;;;;;;0.00;0.00;;;;;;;16.71;29.50;98657.97;4972888;28;20296;-60
2023/01/02 04:44:54;;;;;;;0.00;0.00;;;;;;;16.81;28.11;98661.91;4964351;28;20245;-60
2023/01/02 04:47:21;;;;;;;0.00;0.00;;;;;;;16.89;28.13;98655.69;4967327;28;20729;-62
2023/01/02 04:49:47;;;;;;;0.00;0.00;;;;;;;16.94;28.23;98661.22;4967124;28;20291;-60
2023/01/02 04:52:15;;;;;;;0.00;0.00;;;;;;;16.85;28.35;98670.25;4964221;28;20253;-60
2023/01/02 04:54:41;;;;;;;0.00;0.00;;;;;;;16.88;28.16;98672.50;4967709;28;20292;-60
2023/01/02 04:57:08;;;;;;;0.00;0.00;;;;;;;16.83;28.22;98672.25;4964475;28;20234;-61
2023/01/02 04:59:35;;;;;;;0.00;0.00;;;;;;;16.76;27.87;98666.91;4967148;28;20929;-61
2023/01/02 05:02:01;;;;;;;0.00;0.00;;;;;;;16.61;28.85;98667.00;4965463;28;20237;-61
2023/01/02 05:04:28;;;;;;;0.00;0.00;;;;;;;16.60;27.75;98657.47;4967749;28;20239;-61
2023/01/02 05:06:54;;;;;;;0.00;0.00;;;;;;;16.57;28.02;98678.09;4964506;28;20308;-61
2023/01/02 05:09:22;;;;;;;0.00;0.00;;;;;;;16.65;27.77;98670.91;4968215;28;20707;-60
2023/01/02 05:11:49;;;;;;;0.00;0.00;;;;;;;16.61;27.96;98664.38;4966311;28;20691;-61
2023/01/02 05:14:15;;;;;;;0.00;0.00;;;;;;;16.78;26.84;98669.38;4964007;28;20631;-60
2023/01/02 05:16:42;;;;;;;0.00;0.00;;;;;;;16.76;27.62;98679.31;4966101;28;20227;-60
2023/01/02 05:19:08;;;;;;;0.00;0.00;;;;;;;16.80;26.81;98681.34;4965173;28;20304;-60
2023/01/02 05:24:19;;;;;;;0.00;0.00;;;;;;;16.88;27.58;98676.94;4965151;28;20235;-60
2023/01/02 05:26:47;;;;;;;0.00;0.00;;;;;;;16.89;26.89;98682.06;4967105;28;20291;-60
2023/01/02 05:29:14;;;;;;;0.00;0.00;;;;;;;16.89;26.99;98687.31;4964080;28;20246;-61
2023/01/02 05:31:40;;;;;;;0.00;0.00;;;;;;;16.79;26.67;98692.09;4966395;28;20307;-61
2023/01/02 05:34:07;;;;;;;0.00;0.00;;;;;;;16.87;27.31;98680.59;4964502;28;20257;-61
2023/01/02 05:36:33;;;;;;;0.00;0.00;;;;;;;16.74;27.75;98697.13;4966992;28;20698;-61
2023/01/02 05:39:00;;;;;;;0.00;0.00;;;;;;;16.66;26.82;98687.50;4963069;28;20709;-61
2023/01/02 05:41:27;;;;;;;0.00;0.00;;;;;;;16.52;27.42;98687.38;4966976;28;20238;-61
2023/01/02 05:43:55;;;;;;;0.00;0.00;;;;;;;16.48;27.50;98687.97;4964596;28;20238;-61
2023/01/02 05:46:22;;;;;;;0.00;0.00;;;;;;;16.46;28.67;98682.84;4966972;28;20247;-61
2023/01/02 05:48:48;;;;;;;0.00;0.00;;;;;;;16.52;27.43;98689.22;4967561;28;20316;-61
2023/01/02 05:51:17;;;;;;;0.00;0.00;;;;;;;16.46;28.95;98696.03;4964223;28;20245;-61
2023/01/02 05:53:44;;;;;;;0.00;0.00;;;;;;;16.49;26.92;98706.19;4965691;28;20285;-61
2023/01/02 05:56:12;;;;;;;0.00;0.00;;;;;;;16.57;27.44;98709.72;4963248;28;20300;-61
2023/01/02 05:58:41;;;;;;;0.00;0.00;;;;;;;16.66;27.00;98701.53;4969846;28;20237;-61
2023/01/02 06:01:10;;;;;;;0.00;0.00;;;;;;;16.62;26.97;98705.53;4963683;28;20244;-61
2023/01/02 06:03:37;;;;;;;0.00;0.00;;;;;;;16.51;28.11;98712.09;4965796;28;20752;-61
2023/01/02 06:06:05;;;;;;;0.00;0.00;;;;;;;16.47;27.41;98707.41;4964246;28;20235;-61
2023/01/02 06:08:32;;;;;;;0.00;0.00;;;;;;;16.51;27.49;98711.31;4966608;28;20240;-61
2023/01/02 06:10:59;;;;;;;0.00;0.00;;;;;;;16.50;27.58;98730.75;4963503;28;20252;-61
2023/01/02 06:13:28;;;;;;;0.00;0.00;;;;;;;16.47;27.24;98729.28;4966344;28;20808;-61
2023/01/02 06:15:55;;;;;;;0.00;0.00;;;;;;;16.54;27.40;98734.63;4963320;28;20229;-61
2023/01/02 06:18:23;;;;;;;0.00;0.00;;;;;;;16.57;27.07;98739.53;4966222;28;20239;-61
2023/01/02 06:20:50;;;;;;;0.00;0.00;;;;;;;16.53;26.98;98741.72;4964325;28;20233;-61
2023/01/02 06:23:17;;;;;;;0.00;0.00;;;;;;;16.61;27.26;98743.44;4962923;28;20222;-61
2023/01/02 06:25:43;;;;;;;0.00;0.00;;;;;;;16.60;28.96;98764.69;4965550;28;20300;-61
2023/01/02 06:28:10;;;;;;;0.00;0.00;;;;;;;16.33;29.98;98762.56;4964110;28;20233;-61
2023/01/02 06:30:36;;;;;;;0.00;0.00;;;;;;;16.12;31.33;98767.78;4967626;28;20280;-61
2023/01/02 06:33:03;;;;;;;0.00;0.00;;;;;;;15.89;33.09;98777.44;4967757;28;20311;-61
2023/01/02 06:35:31;;;;;;;0.00;0.00;;;;;;;15.62;34.57;98766.47;4970357;28;20230;-61
2023/01/02 06:37:57;;;;;;;0.00;0.00;;;;;;;15.50;34.36;98778.44;4968519;28;20233;-61
2023/01/02 06:40:24;;;;;;;0.00;0.00;;;;;;;15.32;36.12;98779.59;4971244;28;20932;-61
2023/01/02 06:42:51;;;;;;;0.00;0.00;;;;;;;15.14;36.35;98789.63;4970547;28;20286;-61
2023/01/02 06:45:17;;;;;;;0.00;0.00;;;;;;;15.01;36.58;98783.13;4967814;28;20382;-61
2023/01/02 06:47:44;;;;;;;0.00;0.00;;;;;;;14.90;38.05;98773.81;4968974;28;20228;-60
2023/01/02 06:50:10;;;;;;;0.00;0.00;;;;;;;14.93;34.61;98771.84;4966918;28;20292;-60
2023/01/02 06:52:41;;;;;;;0.00;0.00;;;;;;;14.96;36.40;98772.31;4970595;28;20602;-61
2023/01/02 06:55:08;;;;;;;0.00;0.00;;;;;;;14.85;38.46;98780.63;4967592;28;20233;-61
2023/01/02 06:57:34;;;;;;;0.00;0.00;;;;;;;15.00;34.48;98770.97;4968973;28;20229;-61
2023/01/02 07:00:01;;;;;;;0.00;0.00;;;;;;;15.00;35.31;98773.59;4969222;28;20286;-61
2023/01/02 07:02:27;;;;;;;0.00;0.00;;;;;;;14.96;38.82;98785.47;4970416;28;20237;-62
2023/01/02 07:04:54;;;;;;;0.00;0.00;;;;;;;14.84;39.03;98787.66;4965460;28;20244;-61
2023/01/02 07:07:20;;;;;;;0.00;0.00;;;;;;;14.69;39.75;98790.22;4970545;28;20245;-62
2023/01/02 07:09:48;;;;;;;0.00;0.00;;;;;;;14.60;38.66;98785.97;4968997;28;20307;-62
2023/01/02 07:12:15;;;;;;;0.00;0.00;;;;;;;14.57;38.74;98786.34;4966260;28;20246;-62
2023/01/02 07:14:41;;;;;;;0.00;0.00;;;;;;;14.50;39.14;98786.22;4969384;28;20239;-62
2023/01/02 07:17:08;;;;;;;0.00;0.00;;;;;;;14.42;40.71;98792.31;4966419;28;20241;-62
2023/01/02 07:19:34;;;;;;;0.00;0.00;;;;;;;14.37;41.44;98794.63;4970314;28;20292;-62
2023/01/02 07:22:01;;;;;;;0.00;0.00;;;;;;;14.26;42.23;98790.59;4966018;28;20243;-62
2023/01/02 07:24:28;;;;;;;0.00;0.00;;;;;;;14.20;42.03;98793.88;4969587;28;20244;-61
2023/01/02 07:26:55;;;;;;;0.00;0.00;;;;;;;14.12;42.34;98800.00;4967271;28;20236;-62
2023/01/02 07:29:22;;;;;;;0.00;0.00;;;;;;;14.05;44.14;98790.34;4969819;28;21136;-62
2023/01/02 07:31:49;;;;;;;0.00;0.00;;;;;;;14.00;44.50;98801.34;4969646;28;20240;-61
2023/01/02 07:34:15;;;;;;;0.00;0.00;;;;;;;13.95;44.06;98806.28;4966871;28;20306;-61
2023/01/02 07:36:42;;;;;;;0.00;0.00;;;;;;;13.82;45.13;98818.13;4975744;28;20239;-61
2023/01/02 07:39:08;;;;;;;0.00;0.00;;;;;;;13.82;44.98;98812.03;4967501;28;20240;-61
2023/01/02 07:41:35;;;;;;;0.00;0.00;;;;;;;13.73;44.86;98811.25;4968263;28;20238;-62
2023/01/02 07:44:13;;;;;;;0.00;0.00;;;;;;;13.70;45.16;98817.66;4972157;28;20295;-62
2023/01/02 07:46:40;;;;;;;0.00;0.00;;;;;;;13.59;45.27;98815.38;4968662;28;20229;-62
2023/01/02 07:49:06;;;;;;;0.00;0.00;;;;;;;13.58;47.46;98816.34;4965993;28;20236;-62
2023/01/02 07:51:33;;;;;;;0.00;0.00;;;;;;;13.75;41.82;98811.09;4967792;28;20229;-62
2023/01/02 07:54:00;;;;;;;0.00;0.00;;;;;;;13.91;42.04;98812.84;4965571;28;20239;-61
2023/01/02 07:56:26;;;;;;;0.00;0.00;;;;;;;13.85;44.26;98820.41;4968789;28;20236;-62
2023/01/02 07:58:53;;;;;;;0.00;0.00;;;;;;;13.82;44.66;98830.41;4968586;28;20783;-62
2023/01/02 08:01:21;;;;;;;0.00;0.00;;;;;;;13.77;45.81;98833.53;4965833;28;20237;-62
2023/01/02 08:03:47;;;;;;;0.00;0.00;;;;;;;13.76;45.76;98844.22;4968377;28;20241;-61
2023/01/02 08:06:16;;;;;;;0.00;0.00;;;;;;;13.71;46.08;98847.31;4966562;28;20310;-61
2023/01/02 08:08:43;;;;;;;0.00;0.00;;;;;;;13.67;45.05;98854.72;4968717;28;20240;-62
2023/01/02 08:11:11;;;;;;;0.00;0.00;;;;;;;13.68;46.02;98858.97;4964853;28;20247;-61
2023/01/02 08:13:38;;;;;;;0.00;0.00;;;;;;;13.62;45.41;98861.41;4969796;28;20243;-61
2023/01/02 08:16:06;;;;;;;0.00;0.00;;;;;;;13.75;45.08;98860.94;4967820;28;20822;-61
2023/01/02 08:18:34;;;;;;;0.00;0.00;;;;;;;13.75;43.66;98853.88;4968555;28;20303;-62
2023/01/02 08:21:01;;;;;;;0.00;0.00;;;;;;;13.82;44.38;98872.38;4998086;28;20624;-62
2023/01/02 08:23:28;;;;;;;0.00;0.00;;;;;;;13.79;45.20;98864.84;4971002;28;20243;-61
2023/01/02 08:25:57;;;;;;;0.00;0.00;;;;;;;13.81;46.29;98863.72;4965113;28;20655;-62
2023/01/02 08:28:24;;;;;;;0.00;0.00;;;;;;;13.82;46.42;98864.50;4966488;28;20363;-61
2023/01/02 08:30:51;;;;;;;0.00;0.00;;;;;;;13.79;46.31;98856.97;4968856;28;20240;-62
2023/01/02 08:33:17;;;;;;;0.00;0.00;;;;;;;13.85;45.19;98861.56;4963980;28;20249;-62
2023/01/02 08:35:45;;;;;;;0.00;0.00;;;;;;;13.90;44.60;98869.75;4967983;28;20688;-61
2023/01/02 08:38:14;;;;;;;0.00;0.00;;;;;;;14.39;39.81;98874.06;4964067;28;20244;-62
2023/01/02 08:40:40;;;;;;;0.00;0.00;;;;;;;14.64;38.93;98871.34;4966818;28;20327;-62
2023/01/02 08:43:08;;;;;;;0.00;0.00;;;;;;;15.01;42.29;98885.66;4995611;28;20248;-62
2023/01/02 08:45:34;;;;;;;0.00;0.00;;;;;;;14.99;40.79;98890.25;4967505;28;20295;-62
2023/01/02 08:48:01;;;;;;;0.00;0.00;;;;;;;15.11;39.92;98895.13;4964787;28;20327;-62
2023/01/02 08:50:28;;;;;;;0.00;0.00;;;;;;;15.15;40.01;98891.97;4967190;28;20295;-62
2023/01/02 08:52:56;;;;;;;0.00;0.00;;;;;;;15.23;40.80;98901.63;4978887;28;20297;-62
2023/01/02 08:55:23;;;;;;;0.00;0.00;;;;;;;15.32;38.55;98913.75;4968824;28;20236;-61
2023/01/02 08:57:49;;;;;;;0.00;0.00;;;;;;;15.37;38.84;98923.72;4968090;28;20233;-62
2023/01/02 09:00:17;;;;;;;0.00;0.00;;;;;;;15.41;39.09;98922.38;4963285;28;20249;-62
2023/01/02 09:02:43;;;;;;;0.00;0.00;;;;;;;15.46;38.91;98925.31;4967783;28;20236;-62
2023/01/02 09:05:10;;;;;;;0.00;0.00;;;;;;;15.58;40.22;98933.59;4964158;28;20276;-62
2023/01/02 09:07:36;;;;;;;0.00;0.00;;;;;;;15.52;39.08;98928.22;4969112;28;20232;-62
2023/01/02 09:10:05;;;;;;;0.00;0.00;;;;;;;15.60;37.24;98936.88;4964342;28;20233;-62
2023/01/02 09:12:32;;;;;;;0.00;0.00;;;;;;;15.71;36.31;98948.81;4966875;28;20764;-62
2023/01/02 09:14:59;;;;;;;0.00;0.00;;;;;;;15.77;36.26;98950.75;4963112;28;20253;-63
2023/01/02 09:17:25;;;;;;;0.00;0.00;;;;;;;15.93;35.32;98951.59;4967365;28;20245;-62
2023/01/02 09:19:52;;;;;;;0.00;0.00;;;;;;;16.03;35.47;98965.34;4967558;28;20234;-62
2023/01/02 09:22:19;;;;;;;0.00;0.00;;;;;;;15.97;35.96;98962.63;4964352;28;20914;-62
2023/01/02 09:24:45;;;;;;;0.00;0.00;;;;;;;16.04;35.13;98971.44;4966972;28;20795;-62
2023/01/02 09:27:13;;;;;;;0.00;0.00;;;;;;;15.91;35.34;98985.19;4964431;28;20642;-62
2023/01/02 09:29:40;;;;;;;0.00;0.00;;;;;;;16.02;35.01;98981.34;4966812;28;20875;-62
2023/01/02 09:32:07;;;;;;;0.00;0.00;;;;;;;15.98;35.49;98995.84;4963598;28;20234;-62
2023/01/02 09:34:33;;;;;;;0.00;0.00;;;;;;;15.93;36.05;98994.56;4966812;28;20244;-62
2023/01/02 09:37:01;;;;;;;0.00;0.00;;;;;;;16.00;35.97;98994.66;4962898;28;20694;-62
2023/01/02 09:39:28;;;;;;;0.00;0.00;;;;;;;16.00;35.74;98988.59;4968069;28;20238;-62
2023/01/02 09:41:57;;;;;;;0.00;0.00;;;;;;;15.93;37.26;98991.94;4964948;28;20778;-62
2023/01/02 09:44:37;;;;;;;0.00;0.00;;;;;;;15.81;37.09;99001.19;4966106;28;20231;-62
2023/01/02 09:47:08;;;;;;;0.00;0.00;;;;;;;15.79;37.42;99004.03;4965261;28;20315;-62
2023/01/02 09:49:46;;;;;;;0.00;0.00;;;;;;;15.71;37.92;98997.97;4969779;28;20234;-62
2023/01/02 09:52:17;;;;;;;0.00;0.00;;;;;;;15.63;37.80;99004.13;4963960;28;20241;-62
2023/01/02 09:54:43;;;;;;;0.00;0.00;;;;;;;15.71;37.30;99000.63;4968408;28;20593;-62
2023/01/02 09:57:23;;;;;;;0.00;0.00;;;;;;;15.82;37.34;98999.41;4963635;28;20221;-62
2023/01/02 09:59:57;;;;;;;0.00;0.00;;;;;;;15.84;38.11;98985.06;4965532;28;20296;-62
2023/01/02 10:02:47;;;;;;;0.00;0.00;;;;;;;15.93;37.17;99009.53;4958269;28;20702;-62
2023/01/02 10:05:32;;;;;;;0.00;0.00;;;;;;;15.88;38.11;99011.91;4962142;28;21942;-62
2023/01/02 10:08:10;;;;;;;0.00;0.00;;;;;;;15.90;36.82;99009.91;4958512;28;20697;-62
2023/01/02 10:10:40;;;;;;;0.00;0.00;;;;;;;15.95;37.66;98989.09;4962109;28;20782;-62
2023/01/02 10:13:16;;;;;;;0.00;0.00;;;;;;;15.97;36.61;98999.47;4961066;28;20221;-62
2023/01/02 10:15:48;;;;;;;0.00;0.00;;;;;;;16.08;38.20;98999.88;4966277;28;20292;-62
2023/01/02 10:18:29;;;;;;;0.00;0.00;;;;;;;15.95;38.31;98997.00;4962130;28;20241;-62
2023/01/02 10:21:01;;;;;;;0.00;0.00;;;;;;;16.01;36.98;99008.66;4962037;28;20253;-63
2023/01/02 10:23:35;;;;;;;0.00;0.00;;;;;;;15.90;37.36;99000.19;4965879;28;20241;-62
2023/01/02 10:26:05;;;;;;;0.00;0.00;;;;;;;15.77;38.22;99008.66;4962660;28;20335;-62
2023/01/02 10:28:40;;;;;;;0.00;0.00;;;;;;;15.73;38.09;99017.03;4965165;28;20238;-62
2023/01/02 10:31:12;;;;;;;0.00;0.00;;;;;;;15.69;38.79;99021.84;4963845;28;20279;-62
2023/01/02 10:33:44;;;;;;;0.00;0.00;;;;;;;15.69;39.58;99007.88;4966162;28;20259;-62
2023/01/02 10:36:20;;;;;;;0.00;0.00;;;;;;;15.69;38.85;99006.06;4963420;28;20893;-62
2023/01/02 10:38:47;;;;;;;0.00;0.00;;;;;;;15.78;37.42;99007.66;4965028;28;20236;-62
2023/01/02 10:41:13;;;;;;;0.00;0.00;;;;;;;15.76;39.21;98993.84;4960622;28;20652;-62
2023/01/02 10:43:40;;;;;;;0.00;0.00;;;;;;;15.76;38.94;98999.09;4965273;28;20243;-62
2023/01/02 10:46:08;;;;;;;0.00;0.00;;;;;;;15.69;40.13;99010.50;4962567;28;20223;-62
2023/01/02 10:48:37;;;;;;;0.00;0.00;;;;;;;15.72;40.82;99028.56;4966217;28;20229;-62
2023/01/02 10:51:07;;;;;;;0.00;0.00;;;;;;;15.87;38.78;99010.25;4963109;28;20697;-62
2023/01/02 10:53:36;;;;;;;0.00;0.00;;;;;;;15.89;39.08;99001.19;4979782;28;20624;-62
2023/01/02 10:56:03;;;;;;;0.00;0.00;;;;;;;15.96;38.57;99006.53;4962943;28;21140;-62
2023/01/02 10:58:33;;;;;;;0.00;0.00;;;;;;;16.01;39.21;99001.56;4966092;28;20246;-62
2023/01/02 11:01:05;;;;;;;0.00;0.00;;;;;;;15.94;38.44;99004.09;4963351;28;20302;-62
2023/01/02 11:03:34;;;;;;;0.00;0.00;;;;;;;15.94;38.67;99013.78;4965686;28;20245;-62
2023/01/02 11:06:00;;;;;;;0.00;0.00;;;;;;;15.96;38.54;99003.09;4962800;28;20242;-62
2023/01/02 11:08:36;;;;;;;0.00;0.00;;;;;;;16.02;40.01;99002.41;4967069;28;20629;-62
2023/01/02 11:11:13;;;;;;;0.00;0.00;;;;;;;15.92;41.16;99005.25;4964341;28;20289;-63
2023/01/02 11:13:45;;;;;;;0.00;0.00;;;;;;;16.01;39.52;99006.03;4964211;28;20233;-62
2023/01/02 11:16:13;;;;;;;0.00;0.00;;;;;;;16.07;40.59;99018.50;4962880;28;20278;-62
2023/01/02 11:18:48;;;;;;;0.00;0.00;;;;;;;16.06;39.20;99001.84;4970106;28;20238;-62
2023/01/02 11:21:25;;;;;;;0.00;0.00;;;;;;;16.01;40.43;99000.75;4966143;28;20296;-62
2023/01/02 11:23:58;;;;;;;0.00;0.00;;;;;;;15.85;39.62;99010.38;4968212;28;20284;-63
2023/01/02 11:26:25;;;;;;;0.00;0.00;;;;;;;15.97;40.41;99008.19;4968102;28;20610;-63
2023/01/02 11:28:54;;;;;;;0.00;0.00;;;;;;;16.04;41.19;99006.47;4969425;28;20234;-63
2023/01/02 11:31:22;;;;;;;0.00;0.00;;;;;;;16.05;40.83;98999.41;4966971;28;20288;-63
2023/01/02 11:33:50;;;;;;;0.00;0.00;;;;;;;15.92;40.97;98992.94;4972188;28;20749;-63
2023/01/02 11:36:18;;;;;;;0.00;0.00;;;;;;;15.90;40.15;98994.91;4965649;28;20245;-63
2023/01/02 11:38:47;;;;;;;0.00;0.00;;;;;;;16.03;39.61;98990.88;4968693;28;20300;-63
2023/01/02 11:43:47;;;;;;;0.00;0.00;;;;;;;15.98;41.02;98982.69;4966951;28;20314;-63
2023/01/02 11:44:20;;;;;;;0.00;0.00;;;;;;;16.13;41.38;98982.72;4964123;28;20229;-63
2023/01/02 11:46:47;;;;;;;0.00;0.00;;;;;;;16.06;40.48;98980.00;4967674;28;20226;-63
2023/01/02 11:49:19;;;;;;;0.00;0.00;;;;;;;16.08;42.58;98976.16;4965292;28;20733;-63